createdAt,value
2022-12-20T20:41:12.313Z,14.23
2022-12-20T20:43:45.297Z,15.75
2022-12-20T20:46:20.931Z,13.63
2022-12-20T20:48:48.465Z,14.05
2022-12-20T20:51:16.195Z,13.95
2022-12-20T20:53:42.987Z,15.05
2022-12-20T20:56:09.684Z,16.25
2022-12-20T20:58:36.774Z,13.55
2022-12-20T21:01:08.443Z,13.80
2022-12-20T21:03:35.551Z,12.55
2022-12-20T21:08:48.641Z,14.23
2022-12-20T21:11:15.541Z,13.80
2022-12-20T21:13:42.036Z,12.93
2022-12-20T21:16:16.032Z,15.82
2022-12-20T21:18:42.585Z,15.15
2022-12-20T21:21:10.897Z,16.10
2022-12-20T21:23:38.261Z,15.95
2022-12-20T21:26:05.744Z,16.52
2022-12-20T21:28:32.148Z,14.95
2022-12-20T21:31:05.430Z,14.63
2022-12-20T21:33:32.208Z,16.77
2022-12-20T21:36:03.715Z,15.10
2022-12-20T21:38:35.265Z,16.45
2022-12-20T21:41:02.694Z,15.32
2022-12-20T21:43:29.854Z,12.32
2022-12-20T21:45:56.651Z,11.48
2022-12-20T21:48:24.307Z,11.82
2022-12-20T21:51:00.109Z,10.95
2022-12-20T21:53:26.975Z,10.88
2022-12-20T21:55:58.819Z,11.00
2022-12-20T21:58:26.742Z,11.15
2022-12-20T22:00:55.286Z,11.07
2022-12-20T22:03:23.419Z,12.07
2022-12-20T22:05:52.092Z,13.13
2022-12-20T22:08:20.470Z,15.30
2022-12-20T22:10:47.131Z,12.68
2022-12-20T22:13:13.767Z,15.73
2022-12-20T22:15:42.234Z,12.50
2022-12-20T22:18:08.714Z,10.88
2022-12-20T22:20:36.040Z,11.43
2022-12-20T22:23:02.821Z,11.18
2022-12-20T22:25:30.099Z,11.32
2022-12-20T22:27:56.517Z,13.50
2022-12-20T22:30:22.962Z,11.13
2022-12-20T22:32:49.491Z,10.13
2022-12-20T22:35:22.258Z,9.32
2022-12-20T22:37:49.234Z,9.77
2022-12-20T22:40:15.704Z,10.98
2022-12-20T22:42:44.438Z,11.60
2022-12-20T22:45:11.338Z,10.82
2022-12-20T22:47:41.530Z,11.77
2022-12-20T22:50:08.590Z,10.70
2022-12-20T22:52:35.038Z,11.50
2022-12-20T22:55:01.528Z,11.57
2022-12-20T22:57:29.025Z,10.48
2022-12-20T22:59:59.432Z,10.57
2022-12-20T23:02:28.134Z,12.75
2022-12-20T23:04:55.741Z,9.95
2022-12-20T23:07:22.218Z,10.80
2022-12-20T23:09:48.849Z,10.43
2022-12-20T23:12:36.952Z,9.68
2022-12-20T23:15:26.546Z,9.73
2022-12-20T23:17:52.960Z,9.38
2022-12-20T23:20:37.629Z,8.73
2022-12-20T23:23:04.089Z,8.60
2022-12-20T23:25:30.493Z,8.80
2022-12-20T23:27:56.868Z,8.48
2022-12-20T23:30:24.429Z,8.60
2022-12-20T23:32:51.142Z,8.13
2022-12-20T23:35:20.323Z,9.15
2022-12-20T23:37:47.792Z,8.85
2022-12-20T23:40:16.324Z,9.48
2022-12-20T23:42:43.251Z,8.90
2022-12-20T23:45:10.621Z,8.68
2022-12-20T23:47:37.141Z,8.93
2022-12-20T23:50:03.957Z,8.75
2022-12-20T23:52:30.441Z,8.43
2022-12-20T23:54:56.843Z,9.77
2022-12-20T23:57:23.273Z,13.77
2022-12-20T23:59:49.692Z,13.55
